sensor_id;sensor_type;location;lat;lon;timestamp;P1;durP1;ratioP1;P2;durP2;ratioP2
41897;SDS011;27576;53.366;-1.498;2023-02-26T00:00:05;14.23;;;4.25;;
41897;SDS011;27576;53.366;-1.498;2023-02-26T00:02:34;18.55;;;4.30;;
41897;SDS011;27576;53.366;-1.498;2023-02-26T00:05:00;11.77;;;4.35;;
41897;SDS011;27576;53.366;-1.498;2023-02-26T00:07:27;12.55;;;4.38;;
41897;SDS011;27576;53.366;-1.498;2023-02-26T00:09:53;12.90;;;3.50;;
41897;SDS011;27576;53.366;-1.498;2023-02-26T00:12:19;10.68;;;3.35;;
41897;SDS011;27576;53.366;-1.498;2023-02-26T00:14:45;9.93;;;3.03;;
41897;SDS011;27576;53.366;-1.498;2023-02-26T00:17:22;12.45;;;3.78;;
41897;SDS011;27576;53.366;-1.498;2023-02-26T00:19:49;8.60;;;3.20;;
41897;SDS011;27576;53.366;-1.498;2023-02-26T00:22:15;13.43;;;3.47;;
41897;SDS011;27576;53.366;-1.498;2023-02-26T00:24:40;8.02;;;3.40;;
41897;SDS011;27576;53.366;-1.498;2023-02-26T00:27:06;9.70;;;3.45;;
41897;SDS011;27576;53.366;-1.498;2023-02-26T00:29:32;12.23;;;4.22;;
41897;SDS011;27576;53.366;-1.498;2023-02-26T00:31:57;9.90;;;3.60;;
41897;SDS011;27576;53.366;-1.498;2023-02-26T00:34:23;8.63;;;3.03;;
41897;SDS011;27576;53.366;-1.498;2023-02-26T00:42:58;8.18;;;3.10;;
41897;SDS011;27576;53.366;-1.498;2023-02-26T00:45:24;6.68;;;3.33;;
41897;SDS011;27576;53.366;-1.498;2023-02-26T00:50:30;11.50;;;3.83;;
41897;SDS011;27576;53.366;-1.498;2023-02-26T00:55:39;14.52;;;3.38;;
41897;SDS011;27576;53.366;-1.498;2023-02-26T00:58:05;12.95;;;3.70;;
41897;SDS011;27576;53.366;-1.498;2023-02-26T01:00:30;17.65;;;4.35;;
41897;SDS011;27576;53.366;-1.498;2023-02-26T01:02:56;14.25;;;3.70;;
41897;SDS011;27576;53.366;-1.498;2023-02-26T01:05:22;12.70;;;3.25;;
41897;SDS011;27576;53.366;-1.498;2023-02-26T01:10:18;10.15;;;3.03;;
41897;SDS011;27576;53.366;-1.498;2023-02-26T01:12:44;13.55;;;3.80;;
41897;SDS011;27576;53.366;-1.498;2023-02-26T01:15:10;9.02;;;3.17;;
41897;SDS011;27576;53.366;-1.498;2023-02-26T01:20:18;5.45;;;2.53;;
41897;SDS011;27576;53.366;-1.498;2023-02-26T01:22:53;10.98;;;3.15;;
41897;SDS011;27576;53.366;-1.498;2023-02-26T01:25:26;8.27;;;2.83;;
41897;SDS011;27576;53.366;-1.498;2023-02-26T01:27:54;13.63;;;3.00;;
41897;SDS011;27576;53.366;-1.498;2023-02-26T01:30:21;13.63;;;3.28;;
41897;SDS011;27576;53.366;-1.498;2023-02-26T01:35:36;11.13;;;3.67;;
41897;SDS011;27576;53.366;-1.498;2023-02-26T01:38:35;11.25;;;3.60;;
41897;SDS011;27576;53.366;-1.498;2023-02-26T01:48:58;8.90;;;2.95;;
41897;SDS011;27576;53.366;-1.498;2023-02-26T01:51:44;10.80;;;3.40;;
41897;SDS011;27576;53.366;-1.498;2023-02-26T01:54:21;7.20;;;2.83;;
41897;SDS011;27576;53.366;-1.498;2023-02-26T01:56:49;10.90;;;2.65;;
41897;SDS011;27576;53.366;-1.498;2023-02-26T01:59:19;9.57;;;2.85;;
41897;SDS011;27576;53.366;-1.498;2023-02-26T02:01:48;12.32;;;2.80;;
41897;SDS011;27576;53.366;-1.498;2023-02-26T02:04:16;8.75;;;2.30;;
41897;SDS011;27576;53.366;-1.498;2023-02-26T02:06:42;10.00;;;3.13;;
41897;SDS011;27576;53.366;-1.498;2023-02-26T02:09:09;9.65;;;3.50;;
41897;SDS011;27576;53.366;-1.498;2023-02-26T02:11:36;9.45;;;2.70;;
41897;SDS011;27576;53.366;-1.498;2023-02-26T02:14:16;13.73;;;2.80;;
41897;SDS011;27576;53.366;-1.498;2023-02-26T02:16:54;8.93;;;2.92;;
41897;SDS011;27576;53.366;-1.498;2023-02-26T02:37:33;12.57;;;2.75;;
41897;SDS011;27576;53.366;-1.498;2023-02-26T02:42:49;9.52;;;2.78;;
41897;SDS011;27576;53.366;-1.498;2023-02-26T02:45:20;8.60;;;2.63;;
41897;SDS011;27576;53.366;-1.498;2023-02-26T02:48:00;15.75;;;3.53;;
41897;SDS011;27576;53.366;-1.498;2023-02-26T02:50:32;12.15;;;3.00;;
41897;SDS011;27576;53.366;-1.498;2023-02-26T02:53:22;12.20;;;2.97;;
41897;SDS011;27576;53.366;-1.498;2023-02-26T02:55:56;8.27;;;2.78;;
41897;SDS011;27576;53.366;-1.498;2023-02-26T02:58:30;13.38;;;3.50;;
41897;SDS011;27576;53.366;-1.498;2023-02-26T03:01:00;13.98;;;3.22;;
41897;SDS011;27576;53.366;-1.498;2023-02-26T03:03:39;11.52;;;2.97;;
41897;SDS011;27576;53.366;-1.498;2023-02-26T03:06:09;15.68;;;3.72;;
41897;SDS011;27576;53.366;-1.498;2023-02-26T03:08:38;9.25;;;2.78;;
41897;SDS011;27576;53.366;-1.498;2023-02-26T03:11:06;10.40;;;3.08;;
41897;SDS011;27576;53.366;-1.498;2023-02-26T03:13:32;11.35;;;3.80;;
41897;SDS011;27576;53.366;-1.498;2023-02-26T03:21:56;10.27;;;3.92;;
41897;SDS011;27576;53.366;-1.498;2023-02-26T03:27:20;8.02;;;2.95;;
41897;SDS011;27576;53.366;-1.498;2023-02-26T03:32:20;10.85;;;3.53;;
41897;SDS011;27576;53.366;-1.498;2023-02-26T03:34:52;11.30;;;3.30;;
41897;SDS011;27576;53.366;-1.498;2023-02-26T03:37:52;10.93;;;3.45;;
41897;SDS011;27576;53.366;-1.498;2023-02-26T03:40:26;14.90;;;3.45;;
41897;SDS011;27576;53.366;-1.498;2023-02-26T03:43:03;12.63;;;3.83;;
41897;SDS011;27576;53.366;-1.498;2023-02-26T03:45:30;9.43;;;3.40;;
41897;SDS011;27576;53.366;-1.498;2023-02-26T03:47:59;8.00;;;2.90;;
41897;SDS011;27576;53.366;-1.498;2023-02-26T03:53:21;13.38;;;3.97;;
41897;SDS011;27576;53.366;-1.498;2023-02-26T03:55:58;12.85;;;3.83;;
41897;SDS011;27576;53.366;-1.498;2023-02-26T03:58:32;9.07;;;3.20;;
41897;SDS011;27576;53.366;-1.498;2023-02-26T04:00:59;7.53;;;3.15;;
41897;SDS011;27576;53.366;-1.498;2023-02-26T04:06:02;9.00;;;3.58;;
41897;SDS011;27576;53.366;-1.498;2023-02-26T04:08:29;12.07;;;4.05;;
41897;SDS011;27576;53.366;-1.498;2023-02-26T04:10:59;14.63;;;3.58;;
41897;SDS011;27576;53.366;-1.498;2023-02-26T04:13:30;13.38;;;3.58;;
41897;SDS011;27576;53.366;-1.498;2023-02-26T04:15:56;13.80;;;3.45;;
41897;SDS011;27576;53.366;-1.498;2023-02-26T04:18:21;11.68;;;3.55;;
41897;SDS011;27576;53.366;-1.498;2023-02-26T04:20:46;8.73;;;3.30;;
41897;SDS011;27576;53.366;-1.498;2023-02-26T04:23:12;11.13;;;3.13;;
41897;SDS011;27576;53.366;-1.498;2023-02-26T04:25:37;9.48;;;3.47;;
41897;SDS011;27576;53.366;-1.498;2023-02-26T04:28:02;8.70;;;3.63;;
41897;SDS011;27576;53.366;-1.498;2023-02-26T04:30:28;13.75;;;3.53;;
41897;SDS011;27576;53.366;-1.498;2023-02-26T04:32:53;11.25;;;3.72;;
41897;SDS011;27576;53.366;-1.498;2023-02-26T04:35:19;13.95;;;3.08;;
41897;SDS011;27576;53.366;-1.498;2023-02-26T04:37:44;11.07;;;3.28;;
41897;SDS011;27576;53.366;-1.498;2023-02-26T04:40:10;7.32;;;3.10;;
41897;SDS011;27576;53.366;-1.498;2023-02-26T04:42:36;10.52;;;3.00;;
41897;SDS011;27576;53.366;-1.498;2023-02-26T04:45:01;14.57;;;3.67;;
41897;SDS011;27576;53.366;-1.498;2023-02-26T04:47:27;12.13;;;3.15;;
41897;SDS011;27576;53.366;-1.498;2023-02-26T04:49:53;8.15;;;3.42;;
41897;SDS011;27576;53.366;-1.498;2023-02-26T04:52:18;11.32;;;2.88;;
41897;SDS011;27576;53.366;-1.498;2023-02-26T04:54:43;10.27;;;3.45;;
41897;SDS011;27576;53.366;-1.498;2023-02-26T04:57:09;7.97;;;3.15;;
41897;SDS011;27576;53.366;-1.498;2023-02-26T04:59:34;11.73;;;3.20;;
41897;SDS011;27576;53.366;-1.498;2023-02-26T05:01:59;9.73;;;2.88;;
41897;SDS011;27576;53.366;-1.498;2023-02-26T05:04:26;10.32;;;2.83;;
41897;SDS011;27576;53.366;-1.498;2023-02-26T05:06:51;14.20;;;3.45;;
41897;SDS011;27576;53.366;-1.498;2023-02-26T05:09:17;10.43;;;3.20;;
41897;SDS011;27576;53.366;-1.498;2023-02-26T05:11:42;10.25;;;2.78;;
41897;SDS011;27576;53.366;-1.498;2023-02-26T05:14:07;8.43;;;2.90;;
41897;SDS011;27576;53.366;-1.498;2023-02-26T05:16:33;10.27;;;3.28;;
41897;SDS011;27576;53.366;-1.498;2023-02-26T05:18:59;12.68;;;3.30;;
41897;SDS011;27576;53.366;-1.498;2023-02-26T05:21:24;13.07;;;2.90;;
41897;SDS011;27576;53.366;-1.498;2023-02-26T05:23:50;10.60;;;3.13;;
41897;SDS011;27576;53.366;-1.498;2023-02-26T05:26:15;10.82;;;2.90;;
41897;SDS011;27576;53.366;-1.498;2023-02-26T05:28:40;9.70;;;3.15;;
41897;SDS011;27576;53.366;-1.498;2023-02-26T05:31:09;11.48;;;3.28;;
41897;SDS011;27576;53.366;-1.498;2023-02-26T05:33:36;14.93;;;2.53;;
41897;SDS011;27576;53.366;-1.498;2023-02-26T05:36:02;11.15;;;2.40;;
41897;SDS011;27576;53.366;-1.498;2023-02-26T05:38:27;12.45;;;3.42;;
41897;SDS011;27576;53.366;-1.498;2023-02-26T05:40:55;11.18;;;3.22;;
41897;SDS011;27576;53.366;-1.498;2023-02-26T05:43:21;10.02;;;3.00;;
41897;SDS011;27576;53.366;-1.498;2023-02-26T05:45:48;11.07;;;2.83;;
41897;SDS011;27576;53.366;-1.498;2023-02-26T05:48:14;12.45;;;2.90;;
41897;SDS011;27576;53.366;-1.498;2023-02-26T05:50:39;11.75;;;2.75;;
41897;SDS011;27576;53.366;-1.498;2023-02-26T05:53:05;13.85;;;2.60;;
41897;SDS011;27576;53.366;-1.498;2023-02-26T05:55:30;8.90;;;2.60;;
41897;SDS011;27576;53.366;-1.498;2023-02-26T05:57:55;10.10;;;3.08;;
41897;SDS011;27576;53.366;-1.498;2023-02-26T06:00:21;9.63;;;3.17;;
41897;SDS011;27576;53.366;-1.498;2023-02-26T06:02:46;11.23;;;3.00;;
41897;SDS011;27576;53.366;-1.498;2023-02-26T06:05:12;9.57;;;2.78;;
41897;SDS011;27576;53.366;-1.498;2023-02-26T06:07:37;14.05;;;3.67;;
41897;SDS011;27576;53.366;-1.498;2023-02-26T06:10:04;6.63;;;2.55;;
41897;SDS011;27576;53.366;-1.498;2023-02-26T06:12:32;11.80;;;3.50;;
41897;SDS011;27576;53.366;-1.498;2023-02-26T06:14:58;18.05;;;3.83;;
41897;SDS011;27576;53.366;-1.498;2023-02-26T06:17:23;18.02;;;4.40;;
41897;SDS011;27576;53.366;-1.498;2023-02-26T06:19:49;15.20;;;3.92;;
41897;SDS011;27576;53.366;-1.498;2023-02-26T06:22:14;9.38;;;2.85;;
41897;SDS011;27576;53.366;-1.498;2023-02-26T06:24:39;12.52;;;3.25;;
41897;SDS011;27576;53.366;-1.498;2023-02-26T06:27:05;10.45;;;2.97;;
41897;SDS011;27576;53.366;-1.498;2023-02-26T06:29:30;14.30;;;3.60;;
41897;SDS011;27576;53.366;-1.498;2023-02-26T06:31:56;7.63;;;3.20;;
41897;SDS011;27576;53.366;-1.498;2023-02-26T06:34:21;8.48;;;3.38;;
41897;SDS011;27576;53.366;-1.498;2023-02-26T06:36:46;13.93;;;3.83;;
41897;SDS011;27576;53.366;-1.498;2023-02-26T06:39:12;11.27;;;3.13;;
41897;SDS011;27576;53.366;-1.498;2023-02-26T06:41:37;12.27;;;3.20;;
41897;SDS011;27576;53.366;-1.498;2023-02-26T06:44:03;10.90;;;3.20;;
41897;SDS011;27576;53.366;-1.498;2023-02-26T06:46:29;13.48;;;3.17;;
41897;SDS011;27576;53.366;-1.498;2023-02-26T06:48:54;10.02;;;3.42;;
41897;SDS011;27576;53.366;-1.498;2023-02-26T06:51:20;7.55;;;2.55;;
41897;SDS011;27576;53.366;-1.498;2023-02-26T06:53:45;9.55;;;3.70;;
41897;SDS011;27576;53.366;-1.498;2023-02-26T06:56:10;8.35;;;3.15;;
41897;SDS011;27576;53.366;-1.498;2023-02-26T06:58:36;12.85;;;3.03;;
41897;SDS011;27576;53.366;-1.498;2023-02-26T07:01:02;10.25;;;2.80;;
41897;SDS011;27576;53.366;-1.498;2023-02-26T07:03:37;7.25;;;2.92;;
41897;SDS011;27576;53.366;-1.498;2023-02-26T07:06:02;5.95;;;2.40;;
41897;SDS011;27576;53.366;-1.498;2023-02-26T07:08:31;13.00;;;3.55;;
41897;SDS011;27576;53.366;-1.498;2023-02-26T07:10:56;8.85;;;3.20;;
41897;SDS011;27576;53.366;-1.498;2023-02-26T07:13:22;12.30;;;3.15;;
41897;SDS011;27576;53.366;-1.498;2023-02-26T07:15:47;9.55;;;2.53;;
41897;SDS011;27576;53.366;-1.498;2023-02-26T07:18:12;13.10;;;3.38;;
41897;SDS011;27576;53.366;-1.498;2023-02-26T07:20:38;10.30;;;3.17;;
41897;SDS011;27576;53.366;-1.498;2023-02-26T07:23:03;9.50;;;3.17;;
41897;SDS011;27576;53.366;-1.498;2023-02-26T07:25:29;15.27;;;3.05;;
41897;SDS011;27576;53.366;-1.498;2023-02-26T07:27:54;15.07;;;3.45;;
41897;SDS011;27576;53.366;-1.498;2023-02-26T07:30:20;10.48;;;3.22;;
41897;SDS011;27576;53.366;-1.498;2023-02-26T07:32:45;10.55;;;2.67;;
41897;SDS011;27576;53.366;-1.498;2023-02-26T07:35:11;11.23;;;3.10;;
41897;SDS011;27576;53.366;-1.498;2023-02-26T07:37:36;10.00;;;3.00;;
41897;SDS011;27576;53.366;-1.498;2023-02-26T07:40:02;14.38;;;3.05;;
41897;SDS011;27576;53.366;-1.498;2023-02-26T07:42:28;14.63;;;3.65;;
41897;SDS011;27576;53.366;-1.498;2023-02-26T07:44:53;7.57;;;2.45;;
41897;SDS011;27576;53.366;-1.498;2023-02-26T07:47:19;8.43;;;2.67;;
41897;SDS011;27576;53.366;-1.498;2023-02-26T07:49:44;16.45;;;3.40;;
41897;SDS011;27576;53.366;-1.498;2023-02-26T07:52:09;8.27;;;2.78;;
41897;SDS011;27576;53.366;-1.498;2023-02-26T07:54:35;9.95;;;2.67;;
41897;SDS011;27576;53.366;-1.498;2023-02-26T07:57:01;12.30;;;3.25;;
41897;SDS011;27576;53.366;-1.498;2023-02-26T07:59:27;12.55;;;3.13;;
41897;SDS011;27576;53.366;-1.498;2023-02-26T08:01:52;9.85;;;3.10;;
41897;SDS011;27576;53.366;-1.498;2023-02-26T08:04:19;11.48;;;3.60;;
41897;SDS011;27576;53.366;-1.498;2023-02-26T08:06:45;9.50;;;3.20;;
41897;SDS011;27576;53.366;-1.498;2023-02-26T08:09:10;8.98;;;2.95;;
41897;SDS011;27576;53.366;-1.498;2023-02-26T08:11:36;12.60;;;3.42;;
41897;SDS011;27576;53.366;-1.498;2023-02-26T08:14:04;13.48;;;3.47;;
41897;SDS011;27576;53.366;-1.498;2023-02-26T08:16:30;16.75;;;3.80;;
41897;SDS011;27576;53.366;-1.498;2023-02-26T08:18:56;15.90;;;3.17;;
41897;SDS011;27576;53.366;-1.498;2023-02-26T08:21:21;11.60;;;3.45;;
41897;SDS011;27576;53.366;-1.498;2023-02-26T08:23:47;8.85;;;3.08;;
41897;SDS011;27576;53.366;-1.498;2023-02-26T08:26:13;8.88;;;2.97;;
41897;SDS011;27576;53.366;-1.498;2023-02-26T08:28:39;13.05;;;3.15;;
41897;SDS011;27576;53.366;-1.498;2023-02-26T08:31:05;7.43;;;2.58;;
41897;SDS011;27576;53.366;-1.498;2023-02-26T08:33:31;12.38;;;2.90;;
41897;SDS011;27576;53.366;-1.498;2023-02-26T08:35:57;12.43;;;3.33;;
41897;SDS011;27576;53.366;-1.498;2023-02-26T08:38:26;14.23;;;3.08;;
41897;SDS011;27576;53.366;-1.498;2023-02-26T08:40:52;8.52;;;3.10;;
41897;SDS011;27576;53.366;-1.498;2023-02-26T08:43:19;13.75;;;3.42;;
41897;SDS011;27576;53.366;-1.498;2023-02-26T08:45:45;13.20;;;3.30;;
41897;SDS011;27576;53.366;-1.498;2023-02-26T08:48:10;10.43;;;3.03;;
41897;SDS011;27576;53.366;-1.498;2023-02-26T08:50:36;11.45;;;3.38;;
41897;SDS011;27576;53.366;-1.498;2023-02-26T08:53:02;12.77;;;3.35;;
41897;SDS011;27576;53.366;-1.498;2023-02-26T08:55:27;14.40;;;3.35;;
41897;SDS011;27576;53.366;-1.498;2023-02-26T08:57:52;9.23;;;3.17;;
41897;SDS011;27576;53.366;-1.498;2023-02-26T09:00:18;12.57;;;4.15;;
41897;SDS011;27576;53.366;-1.498;2023-02-26T09:02:44;11.40;;;3.53;;
41897;SDS011;27576;53.366;-1.498;2023-02-26T09:05:10;10.65;;;3.33;;
41897;SDS011;27576;53.366;-1.498;2023-02-26T09:07:36;11.63;;;3.33;;
41897;SDS011;27576;53.366;-1.498;2023-02-26T09:10:02;9.85;;;3.97;;
41897;SDS011;27576;53.366;-1.498;2023-02-26T09:12:29;9.05;;;2.83;;
41897;SDS011;27576;53.366;-1.498;2023-02-26T09:14:54;10.18;;;3.15;;
41897;SDS011;27576;53.366;-1.498;2023-02-26T09:17:22;12.32;;;3.65;;
41897;SDS011;27576;53.366;-1.498;2023-02-26T09:19:49;12.68;;;4.15;;
41897;SDS011;27576;53.366;-1.498;2023-02-26T09:22:14;14.25;;;3.60;;
41897;SDS011;27576;53.366;-1.498;2023-02-26T09:24:39;12.50;;;3.80;;
41897;SDS011;27576;53.366;-1.498;2023-02-26T09:27:05;12.38;;;3.00;;
41897;SDS011;27576;53.366;-1.498;2023-02-26T09:29:30;12.38;;;3.35;;
41897;SDS011;27576;53.366;-1.498;2023-02-26T09:31:55;14.40;;;3.53;;
41897;SDS011;27576;53.366;-1.498;2023-02-26T09:34:21;12.43;;;3.00;;
41897;SDS011;27576;53.366;-1.498;2023-02-26T09:36:46;12.43;;;3.22;;
41897;SDS011;27576;53.366;-1.498;2023-02-26T09:39:11;9.27;;;2.88;;
41897;SDS011;27576;53.366;-1.498;2023-02-26T09:41:41;10.60;;;3.47;;
41897;SDS011;27576;53.366;-1.498;2023-02-26T09:50:15;12.65;;;2.65;;
41897;SDS011;27576;53.366;-1.498;2023-02-26T09:55:26;8.35;;;3.13;;
41897;SDS011;27576;53.366;-1.498;2023-02-26T09:58:00;10.02;;;3.65;;
41897;SDS011;27576;53.366;-1.498;2023-02-26T10:08:22;13.88;;;3.63;;
41897;SDS011;27576;53.366;-1.498;2023-02-26T10:11:07;13.63;;;3.28;;
41897;SDS011;27576;53.366;-1.498;2023-02-26T10:16:04;8.73;;;3.00;;
41897;SDS011;27576;53.366;-1.498;2023-02-26T10:18:34;13.48;;;3.42;;
41897;SDS011;27576;53.366;-1.498;2023-02-26T10:21:08;13.48;;;3.58;;
41897;SDS011;27576;53.366;-1.498;2023-02-26T10:26:35;14.93;;;3.28;;
41897;SDS011;27576;53.366;-1.498;2023-02-26T10:29:16;7.03;;;2.38;;
41897;SDS011;27576;53.366;-1.498;2023-02-26T10:32:11;11.57;;;2.92;;
41897;SDS011;27576;53.366;-1.498;2023-02-26T10:34:59;14.95;;;3.70;;
41897;SDS011;27576;53.366;-1.498;2023-02-26T10:42:49;10.02;;;2.83;;
41897;SDS011;27576;53.366;-1.498;2023-02-26T10:50:35;10.80;;;3.25;;
41897;SDS011;27576;53.366;-1.498;2023-02-26T10:53:02;17.88;;;2.53;;
41897;SDS011;27576;53.366;-1.498;2023-02-26T10:58:16;7.30;;;2.58;;
41897;SDS011;27576;53.366;-1.498;2023-02-26T11:00:45;15.43;;;3.40;;
41897;SDS011;27576;53.366;-1.498;2023-02-26T11:03:17;8.05;;;2.20;;
41897;SDS011;27576;53.366;-1.498;2023-02-26T11:05:51;10.77;;;2.78;;
41897;SDS011;27576;53.366;-1.498;2023-02-26T11:08:18;8.80;;;2.10;;
41897;SDS011;27576;53.366;-1.498;2023-02-26T11:10:50;10.00;;;2.38;;
41897;SDS011;27576;53.366;-1.498;2023-02-26T11:13:21;13.68;;;3.00;;
41897;SDS011;27576;53.366;-1.498;2023-02-26T11:15:49;7.45;;;1.98;;
41897;SDS011;27576;53.366;-1.498;2023-02-26T11:18:22;9.63;;;2.55;;
41897;SDS011;27576;53.366;-1.498;2023-02-26T11:20:52;7.57;;;3.00;;
41897;SDS011;27576;53.366;-1.498;2023-02-26T11:23:21;8.63;;;2.53;;
41897;SDS011;27576;53.366;-1.498;2023-02-26T11:26:08;10.18;;;2.38;;
41897;SDS011;27576;53.366;-1.498;2023-02-26T11:28:44;6.03;;;1.92;;
41897;SDS011;27576;53.366;-1.498;2023-02-26T11:31:16;8.00;;;2.47;;
41897;SDS011;27576;53.366;-1.498;2023-02-26T11:33:44;10.07;;;2.63;;
41897;SDS011;27576;53.366;-1.498;2023-02-26T11:36:15;10.18;;;2.75;;
41897;SDS011;27576;53.366;-1.498;2023-02-26T11:38:43;8.00;;;2.30;;
41897;SDS011;27576;53.366;-1.498;2023-02-26T11:41:10;7.10;;;2.25;;
41897;SDS011;27576;53.366;-1.498;2023-02-26T11:43:41;10.70;;;2.45;;
41897;SDS011;27576;53.366;-1.498;2023-02-26T11:46:09;6.10;;;2.30;;
41897;SDS011;27576;53.366;-1.498;2023-02-26T11:51:14;13.20;;;3.05;;
41897;SDS011;27576;53.366;-1.498;2023-02-26T11:53:54;8.35;;;2.40;;
41897;SDS011;27576;53.366;-1.498;2023-02-26T11:56:31;8.80;;;2.63;;
41897;SDS011;27576;53.366;-1.498;2023-02-26T11:59:23;8.93;;;3.10;;
41897;SDS011;27576;53.366;-1.498;2023-02-26T12:01:49;6.97;;;2.17;;
41897;SDS011;27576;53.366;-1.498;2023-02-26T12:04:24;11.82;;;2.28;;
41897;SDS011;27576;53.366;-1.498;2023-02-26T12:06:51;11.10;;;2.85;;
41897;SDS011;27576;53.366;-1.498;2023-02-26T12:09:19;8.25;;;2.90;;
41897;SDS011;27576;53.366;-1.498;2023-02-26T12:12:06;8.57;;;2.83;;
41897;SDS011;27576;53.366;-1.498;2023-02-26T12:22:48;8.70;;;2.47;;
41897;SDS011;27576;53.366;-1.498;2023-02-26T12:25:38;8.40;;;2.25;;
41897;SDS011;27576;53.366;-1.498;2023-02-26T12:28:31;6.63;;;2.35;;
41897;SDS011;27576;53.366;-1.498;2023-02-26T12:36:35;12.88;;;3.05;;
41897;SDS011;27576;53.366;-1.498;2023-02-26T12:39:40;10.23;;;2.67;;
41897;SDS011;27576;53.366;-1.498;2023-02-26T13:04:11;12.45;;;3.20;;
41897;SDS011;27576;53.366;-1.498;2023-02-26T13:09:25;6.38;;;2.45;;
41897;SDS011;27576;53.366;-1.498;2023-02-26T13:18:22;6.63;;;1.85;;
41897;SDS011;27576;53.366;-1.498;2023-02-26T13:21:21;9.15;;;2.05;;
41897;SDS011;27576;53.366;-1.498;2023-02-26T13:26:37;5.53;;;1.75;;
41897;SDS011;27576;53.366;-1.498;2023-02-26T13:29:05;6.57;;;1.50;;
41897;SDS011;27576;53.366;-1.498;2023-02-26T13:34:22;5.18;;;1.48;;
41897;SDS011;27576;53.366;-1.498;2023-02-26T13:36:49;7.20;;;1.90;;
41897;SDS011;27576;53.366;-1.498;2023-02-26T13:42:09;7.63;;;2.20;;
41897;SDS011;27576;53.366;-1.498;2023-02-26T13:50:18;6.70;;;2.13;;
41897;SDS011;27576;53.366;-1.498;2023-02-26T13:52:50;8.65;;;2.03;;
41897;SDS011;27576;53.366;-1.498;2023-02-26T14:00:46;10.75;;;2.17;;
41897;SDS011;27576;53.366;-1.498;2023-02-26T14:05:52;4.43;;;1.75;;
41897;SDS011;27576;53.366;-1.498;2023-02-26T14:11:22;8.02;;;2.10;;
41897;SDS011;27576;53.366;-1.498;2023-02-26T14:14:38;5.32;;;1.70;;
41897;SDS011;27576;53.366;-1.498;2023-02-26T14:19:26;4.68;;;1.73;;
41897;SDS011;27576;53.366;-1.498;2023-02-26T14:22:12;3.80;;;1.67;;
41897;SDS011;27576;53.366;-1.498;2023-02-26T14:24:42;9.00;;;1.60;;
41897;SDS011;27576;53.366;-1.498;2023-02-26T14:34:58;9.02;;;2.03;;
41897;SDS011;27576;53.366;-1.498;2023-02-26T14:37:28;6.30;;;2.00;;
41897;SDS011;27576;53.366;-1.498;2023-02-26T14:40:19;10.80;;;2.28;;
41897;SDS011;27576;53.366;-1.498;2023-02-26T14:42:53;7.82;;;1.88;;
41897;SDS011;27576;53.366;-1.498;2023-02-26T14:48:03;7.95;;;1.88;;
41897;SDS011;27576;53.366;-1.498;2023-02-26T14:50:34;8.32;;;2.28;;
41897;SDS011;27576;53.366;-1.498;2023-02-26T14:55:54;5.38;;;1.73;;
41897;SDS011;27576;53.366;-1.498;2023-02-26T15:03:51;5.47;;;1.98;;
41897;SDS011;27576;53.366;-1.498;2023-02-26T15:06:34;5.20;;;1.48;;
41897;SDS011;27576;53.366;-1.498;2023-02-26T15:09:26;5.78;;;1.80;;
41897;SDS011;27576;53.366;-1.498;2023-02-26T15:11:56;5.38;;;1.67;;
41897;SDS011;27576;53.366;-1.498;2023-02-26T15:22:56;6.45;;;1.58;;
41897;SDS011;27576;53.366;-1.498;2023-02-26T15:25:30;6.47;;;1.85;;
41897;SDS011;27576;53.366;-1.498;2023-02-26T15:27:58;5.57;;;2.17;;
41897;SDS011;27576;53.366;-1.498;2023-02-26T15:30:25;6.32;;;2.00;;
41897;SDS011;27576;53.366;-1.498;2023-02-26T15:32:57;10.23;;;2.15;;
41897;SDS011;27576;53.366;-1.498;2023-02-26T15:35:26;7.32;;;1.92;;
41897;SDS011;27576;53.366;-1.498;2023-02-26T15:37:54;5.28;;;1.60;;
41897;SDS011;27576;53.366;-1.498;2023-02-26T15:40:22;6.22;;;1.70;;
41897;SDS011;27576;53.366;-1.498;2023-02-26T15:42:49;6.70;;;2.00;;
41897;SDS011;27576;53.366;-1.498;2023-02-26T15:45:19;6.75;;;1.90;;
41897;SDS011;27576;53.366;-1.498;2023-02-26T15:47:52;4.47;;;1.85;;
41897;SDS011;27576;53.366;-1.498;2023-02-26T15:50:30;9.38;;;2.10;;
41897;SDS011;27576;53.366;-1.498;2023-02-26T15:53:02;6.70;;;1.70;;
41897;SDS011;27576;53.366;-1.498;2023-02-26T15:55:30;8.00;;;2.33;;
41897;SDS011;27576;53.366;-1.498;2023-02-26T15:57:59;7.65;;;2.10;;
41897;SDS011;27576;53.366;-1.498;2023-02-26T16:00:25;9.88;;;1.75;;
41897;SDS011;27576;53.366;-1.498;2023-02-26T16:02:54;6.68;;;2.45;;
41897;SDS011;27576;53.366;-1.498;2023-02-26T16:05:27;4.65;;;1.90;;
41897;SDS011;27576;53.366;-1.498;2023-02-26T16:07:53;6.35;;;2.28;;
41897;SDS011;27576;53.366;-1.498;2023-02-26T16:10:33;5.47;;;1.95;;
41897;SDS011;27576;53.366;-1.498;2023-02-26T16:13:02;7.82;;;1.63;;
41897;SDS011;27576;53.366;-1.498;2023-02-26T16:15:31;10.25;;;2.17;;
41897;SDS011;27576;53.366;-1.498;2023-02-26T16:18:01;4.20;;;1.73;;
41897;SDS011;27576;53.366;-1.498;2023-02-26T16:20:34;5.07;;;1.67;;
41897;SDS011;27576;53.366;-1.498;2023-02-26T16:23:15;7.47;;;2.55;;
41897;SDS011;27576;53.366;-1.498;2023-02-26T16:25:48;5.00;;;1.70;;
41897;SDS011;27576;53.366;-1.498;2023-02-26T16:28:20;4.85;;;1.92;;
41897;SDS011;27576;53.366;-1.498;2023-02-26T16:30:51;7.03;;;1.63;;
41897;SDS011;27576;53.366;-1.498;2023-02-26T16:33:20;4.95;;;1.75;;
41897;SDS011;27576;53.366;-1.498;2023-02-26T16:35:48;8.80;;;2.15;;
41897;SDS011;27576;53.366;-1.498;2023-02-26T16:38:20;4.45;;;2.00;;
41897;SDS011;27576;53.366;-1.498;2023-02-26T16:40:53;11.82;;;1.75;;
41897;SDS011;27576;53.366;-1.498;2023-02-26T16:45:49;6.28;;;2.10;;
41897;SDS011;27576;53.366;-1.498;2023-02-26T16:48:23;8.23;;;2.20;;
41897;SDS011;27576;53.366;-1.498;2023-02-26T16:50:55;6.63;;;2.30;;
41897;SDS011;27576;53.366;-1.498;2023-02-26T16:53:28;5.53;;;2.85;;
41897;SDS011;27576;53.366;-1.498;2023-02-26T16:56:08;9.95;;;3.10;;
41897;SDS011;27576;53.366;-1.498;2023-02-26T16:58:40;10.70;;;3.35;;
41897;SDS011;27576;53.366;-1.498;2023-02-26T17:01:11;10.82;;;3.00;;
41897;SDS011;27576;53.366;-1.498;2023-02-26T17:03:39;6.40;;;2.17;;
41897;SDS011;27576;53.366;-1.498;2023-02-26T17:06:09;10.35;;;2.95;;
41897;SDS011;27576;53.366;-1.498;2023-02-26T17:08:45;11.25;;;2.58;;
41897;SDS011;27576;53.366;-1.498;2023-02-26T17:11:34;6.22;;;2.25;;
41897;SDS011;27576;53.366;-1.498;2023-02-26T17:14:12;10.73;;;2.53;;
41897;SDS011;27576;53.366;-1.498;2023-02-26T17:16:39;6.10;;;2.33;;
41897;SDS011;27576;53.366;-1.498;2023-02-26T17:19:05;9.02;;;2.17;;
41897;SDS011;27576;53.366;-1.498;2023-02-26T17:21:30;10.82;;;2.35;;
41897;SDS011;27576;53.366;-1.498;2023-02-26T17:23:56;6.00;;;2.03;;
41897;SDS011;27576;53.366;-1.498;2023-02-26T17:26:21;9.93;;;2.60;;
41897;SDS011;27576;53.366;-1.498;2023-02-26T17:28:47;8.88;;;2.55;;
41897;SDS011;27576;53.366;-1.498;2023-02-26T17:31:13;8.90;;;2.22;;
41897;SDS011;27576;53.366;-1.498;2023-02-26T17:33:39;6.00;;;2.10;;
41897;SDS011;27576;53.366;-1.498;2023-02-26T17:36:06;7.80;;;2.45;;
41897;SDS011;27576;53.366;-1.498;2023-02-26T17:38:31;7.25;;;2.53;;
41897;SDS011;27576;53.366;-1.498;2023-02-26T17:40:57;11.50;;;3.22;;
41897;SDS011;27576;53.366;-1.498;2023-02-26T17:43:24;7.78;;;2.92;;
41897;SDS011;27576;53.366;-1.498;2023-02-26T17:45:51;9.00;;;3.30;;
41897;SDS011;27576;53.366;-1.498;2023-02-26T17:48:17;13.05;;;5.25;;
41897;SDS011;27576;53.366;-1.498;2023-02-26T17:50:46;20.00;;;6.13;;
41897;SDS011;27576;53.366;-1.498;2023-02-26T17:53:15;14.85;;;4.90;;
41897;SDS011;27576;53.366;-1.498;2023-02-26T17:55:42;7.80;;;3.58;;
41897;SDS011;27576;53.366;-1.498;2023-02-26T18:00:53;8.38;;;2.83;;
41897;SDS011;27576;53.366;-1.498;2023-02-26T18:03:19;10.77;;;4.43;;
41897;SDS011;27576;53.366;-1.498;2023-02-26T18:05:46;11.82;;;3.30;;
41897;SDS011;27576;53.366;-1.498;2023-02-26T18:08:22;7.07;;;3.17;;